createdAt,value
2023-03-05T00:00:39.851Z,1014.62
2023-03-05T00:01:40.035Z,1014.64
2023-03-05T00:02:40.297Z,1014.62
2023-03-05T00:03:40.430Z,1014.65
2023-03-05T00:04:40.537Z,1014.61
2023-03-05T00:05:40.740Z,1014.69
2023-03-05T00:06:40.900Z,1014.59
2023-03-05T00:07:41.071Z,1014.60
2023-03-05T00:08:41.225Z,1014.58
2023-03-05T00:09:41.389Z,1014.56
2023-03-05T00:10:41.581Z,1014.55
2023-03-05T00:11:41.719Z,1014.58
2023-03-05T00:12:41.898Z,1014.58
2023-03-05T00:13:42.076Z,1014.53
2023-03-05T00:14:42.228Z,1014.55
2023-03-05T00:15:42.430Z,1014.55
2023-03-05T00:16:42.560Z,1014.47
2023-03-05T00:17:42.718Z,1014.45
2023-03-05T00:18:42.910Z,1014.51
2023-03-05T00:19:43.061Z,1014.39
2023-03-05T00:20:43.221Z,1014.45
2023-03-05T00:21:43.397Z,1014.44
2023-03-05T00:22:43.588Z,1014.49
2023-03-05T00:23:43.757Z,1014.36
2023-03-05T00:24:43.911Z,1014.43
2023-03-05T00:25:44.074Z,1014.34
2023-03-05T00:26:44.295Z,1014.36
2023-03-05T00:27:44.466Z,1014.40
2023-03-05T00:28:44.629Z,1014.35
2023-03-05T00:29:44.764Z,1014.33
2023-03-05T00:30:44.952Z,1014.33
2023-03-05T00:31:45.140Z,1014.36
2023-03-05T00:32:45.333Z,1014.34
2023-03-05T00:33:45.494Z,1014.32
2023-03-05T00:34:45.663Z,1014.21
2023-03-05T00:35:45.879Z,1014.25
2023-03-05T00:36:46.014Z,1014.19
2023-03-05T00:37:46.205Z,1014.25
2023-03-05T00:38:46.387Z,1014.22
2023-03-05T00:39:46.523Z,1014.19
2023-03-05T00:40:46.727Z,1014.14
2023-03-05T00:41:46.855Z,1014.18
2023-03-05T00:42:47.061Z,1014.17
2023-03-05T00:43:47.227Z,1014.15
2023-03-05T00:44:47.418Z,1014.14
2023-03-05T00:45:47.570Z,1014.11
2023-03-05T00:46:47.824Z,1014.10
2023-03-05T00:47:47.919Z,1014.11
2023-03-05T00:48:48.090Z,1014.11
2023-03-05T00:49:48.226Z,1014.07
2023-03-05T00:50:48.410Z,1014.08
2023-03-05T00:51:48.571Z,1014.09
2023-03-05T00:52:48.764Z,1014.08
2023-03-05T00:53:48.976Z,1014.09
2023-03-05T00:54:49.115Z,1013.95
2023-03-05T00:55:49.297Z,1014.00
2023-03-05T00:56:49.477Z,1014.00
2023-03-05T00:57:49.641Z,1013.94
2023-03-05T00:58:49.848Z,1013.98
2023-03-05T00:59:50.009Z,1013.94
2023-03-05T01:00:50.183Z,1013.89
2023-03-05T01:01:50.390Z,1013.92
2023-03-05T01:02:50.529Z,1013.92
2023-03-05T01:03:50.713Z,1013.92
2023-03-05T01:04:50.902Z,1013.89
2023-03-05T01:05:51.035Z,1013.98
2023-03-05T01:06:51.212Z,1013.93
2023-03-05T01:07:51.378Z,1013.91
2023-03-05T01:08:51.577Z,1013.86
2023-03-05T01:09:51.755Z,1013.86
2023-03-05T01:10:51.915Z,1013.90
2023-03-05T01:11:52.084Z,1013.85
2023-03-05T01:12:52.240Z,1013.82
2023-03-05T01:13:52.468Z,1013.84
2023-03-05T01:14:52.596Z,1013.80
2023-03-05T01:15:52.799Z,1013.80
2023-03-05T01:16:52.964Z,1013.82
2023-03-05T01:17:53.143Z,1013.80
2023-03-05T01:18:53.338Z,1013.79
2023-03-05T01:19:53.485Z,1013.77
2023-03-05T01:20:53.660Z,1013.75
2023-03-05T01:21:53.863Z,1013.76
2023-03-05T01:22:54.030Z,1013.77
2023-03-05T01:23:54.198Z,1013.81
2023-03-05T01:24:54.347Z,1013.78
2023-03-05T01:25:54.531Z,1013.71
2023-03-05T01:26:54.689Z,1013.83
2023-03-05T01:27:54.857Z,1013.79
2023-03-05T01:28:55.070Z,1013.70
2023-03-05T01:29:55.188Z,1013.71
2023-03-05T01:30:55.399Z,1013.75
2023-03-05T01:31:55.639Z,1013.74
2023-03-05T01:32:55.725Z,1013.69
2023-03-05T01:33:55.929Z,1013.69
2023-03-05T01:34:56.096Z,1013.71
2023-03-05T01:35:56.303Z,1013.68
2023-03-05T01:36:56.444Z,1013.64
2023-03-05T01:37:56.642Z,1013.65
2023-03-05T01:38:56.833Z,1013.65
2023-03-05T01:39:56.999Z,1013.65
2023-03-05T01:40:57.213Z,1013.58
2023-03-05T01:41:57.330Z,1013.62
2023-03-05T01:42:57.536Z,1013.59
2023-03-05T01:43:57.721Z,1013.63
2023-03-05T01:44:57.910Z,1013.61
2023-03-05T01:45:58.079Z,1013.62
2023-03-05T01:46:58.215Z,1013.62
2023-03-05T01:47:58.383Z,1013.64
2023-03-05T01:48:58.580Z,1013.64
2023-03-05T01:49:58.720Z,1013.61
2023-03-05T01:50:58.905Z,1013.59
2023-03-05T01:51:59.088Z,1013.56
2023-03-05T01:52:59.277Z,1013.55
2023-03-05T01:53:59.449Z,1013.58
2023-03-05T01:54:59.638Z,1013.64
2023-03-05T01:55:59.809Z,1013.58
2023-03-05T01:56:59.983Z,1013.56
2023-03-05T01:58:00.177Z,1013.54
2023-03-05T01:59:00.342Z,1013.57
2023-03-05T02:00:00.515Z,1013.55
2023-03-05T02:01:00.762Z,1013.56
2023-03-05T02:02:00.888Z,1013.61
2023-03-05T02:03:01.094Z,1013.57
2023-03-05T02:04:01.325Z,1013.53
2023-03-05T02:05:01.455Z,1013.53
2023-03-05T02:06:01.621Z,1013.47
2023-03-05T02:07:01.834Z,1013.49
2023-03-05T02:08:01.966Z,1013.48
2023-03-05T02:09:02.174Z,1013.50
2023-03-05T02:10:02.348Z,1013.54
2023-03-05T02:11:02.531Z,1013.50
2023-03-05T02:12:02.698Z,1013.43
2023-03-05T02:13:02.901Z,1013.41
2023-03-05T02:14:03.081Z,1013.39
2023-03-05T02:15:03.311Z,1013.40
2023-03-05T02:16:03.743Z,1013.39
2023-03-05T02:17:03.613Z,1013.35
2023-03-05T02:18:03.753Z,1013.41
2023-03-05T02:19:03.940Z,1013.35
2023-03-05T02:20:04.146Z,1013.32
2023-03-05T02:21:04.329Z,1013.29
2023-03-05T02:22:04.502Z,1013.33
2023-03-05T02:23:04.649Z,1013.28
2023-03-05T02:24:04.815Z,1013.30
2023-03-05T02:25:05.041Z,1013.27
2023-03-05T02:26:05.160Z,1013.27
2023-03-05T02:27:05.349Z,1013.22
2023-03-05T02:28:05.525Z,1013.29
2023-03-05T02:29:05.718Z,1013.30
2023-03-05T02:30:05.922Z,1013.27
2023-03-05T02:31:06.059Z,1013.30
2023-03-05T02:32:06.424Z,1013.27
2023-03-05T02:33:06.430Z,1013.22
2023-03-05T02:34:06.608Z,1013.19
2023-03-05T02:35:06.794Z,1013.20
2023-03-05T02:36:06.961Z,1013.19
2023-03-05T02:37:07.150Z,1013.17
2023-03-05T02:38:07.315Z,1013.13
2023-03-05T02:39:07.520Z,1013.11
2023-03-05T02:40:07.667Z,1013.17
2023-03-05T02:41:07.857Z,1013.06
2023-03-05T02:42:08.023Z,1013.09
2023-03-05T02:43:08.212Z,1013.10
2023-03-05T02:44:08.383Z,1013.03
2023-03-05T02:45:08.580Z,1013.02
2023-03-05T02:46:08.822Z,1013.00
2023-03-05T02:47:08.944Z,1013.03
2023-03-05T02:48:09.126Z,1013.05
2023-03-05T02:49:09.298Z,1012.98
2023-03-05T02:50:09.485Z,1013.01
2023-03-05T02:51:09.659Z,1012.97
2023-03-05T02:52:09.833Z,1012.97
2023-03-05T02:53:10.015Z,1012.93
2023-03-05T02:54:10.194Z,1012.90
2023-03-05T02:55:10.397Z,1012.97
2023-03-05T02:56:10.568Z,1012.95
2023-03-05T02:57:10.736Z,1012.94
2023-03-05T02:58:10.977Z,1012.84
2023-03-05T02:59:11.079Z,1012.90
2023-03-05T03:00:11.368Z,1012.92
2023-03-05T03:01:11.560Z,1012.92
2023-03-05T03:02:11.607Z,1012.90
2023-03-05T03:03:11.848Z,1012.85
2023-03-05T03:04:11.947Z,1012.79
2023-03-05T03:05:12.162Z,1012.88
2023-03-05T03:06:12.312Z,1012.84
2023-03-05T03:07:12.496Z,1012.83
2023-03-05T03:08:12.660Z,1012.86
2023-03-05T03:09:12.881Z,1012.91
2023-03-05T03:10:13.013Z,1012.84
2023-03-05T03:11:13.192Z,1012.79
2023-03-05T03:12:13.369Z,1012.74
2023-03-05T03:13:13.543Z,1012.76
2023-03-05T03:14:13.742Z,1012.73
2023-03-05T03:15:13.912Z,1012.79
2023-03-05T03:16:14.125Z,1012.73
2023-03-05T03:17:14.261Z,1012.74
2023-03-05T03:18:14.436Z,1012.75
2023-03-05T03:19:14.612Z,1012.75
2023-03-05T03:20:14.814Z,1012.77
2023-03-05T03:21:14.984Z,1012.74
2023-03-05T03:22:15.173Z,1012.76
2023-03-05T03:23:15.347Z,1012.69
2023-03-05T03:24:15.537Z,1012.69
2023-03-05T03:25:15.720Z,1012.63
2023-03-05T03:26:15.907Z,1012.70
2023-03-05T03:27:16.045Z,1012.65
2023-03-05T03:28:16.225Z,1012.63
2023-03-05T03:29:16.416Z,1012.61
2023-03-05T03:30:16.605Z,1012.66
2023-03-05T03:31:16.855Z,1012.66
2023-03-05T03:32:16.990Z,1012.68
2023-03-05T03:33:17.099Z,1012.65
2023-03-05T03:34:17.301Z,1012.58
2023-03-05T03:35:17.501Z,1012.60
2023-03-05T03:36:17.643Z,1012.58
2023-03-05T03:37:17.814Z,1012.62
2023-03-05T03:38:18.001Z,1012.58
2023-03-05T03:39:18.171Z,1012.58
2023-03-05T03:40:18.372Z,1012.59
2023-03-05T03:41:18.540Z,1012.55
2023-03-05T03:42:18.729Z,1012.50
2023-03-05T03:43:18.915Z,1012.55
2023-03-05T03:44:19.081Z,1012.55
2023-03-05T03:45:19.272Z,1012.53
2023-03-05T03:46:19.467Z,1012.50
2023-03-05T03:47:19.637Z,1012.45
2023-03-05T03:48:19.859Z,1012.47
2023-03-05T03:49:19.972Z,1012.50
2023-03-05T03:50:20.163Z,1012.45
2023-03-05T03:51:20.346Z,1012.47
2023-03-05T03:52:20.545Z,1012.36
2023-03-05T03:53:20.682Z,1012.40
2023-03-05T03:54:20.873Z,1012.41
2023-03-05T03:55:21.043Z,1012.39
2023-03-05T03:56:21.247Z,1012.43
2023-03-05T03:57:21.396Z,1012.34
2023-03-05T03:58:21.591Z,1012.37
2023-03-05T03:59:21.724Z,1012.35
2023-03-05T04:00:21.906Z,1012.37
2023-03-05T04:01:22.087Z,1012.38
2023-03-05T04:02:22.276Z,1012.35
2023-03-05T04:03:22.444Z,1012.30
2023-03-05T04:04:22.647Z,1012.29
2023-03-05T04:05:22.777Z,1012.31
2023-03-05T04:06:22.968Z,1012.32
2023-03-05T04:07:23.149Z,1012.23
2023-03-05T04:08:23.337Z,1012.25
2023-03-05T04:09:23.512Z,1012.24
2023-03-05T04:10:23.697Z,1012.25
2023-03-05T04:11:23.862Z,1012.17
2023-03-05T04:12:24.037Z,1012.16
2023-03-05T04:13:24.211Z,1012.20
2023-03-05T04:14:24.418Z,1012.12
2023-03-05T04:15:24.569Z,1012.16
2023-03-05T04:16:24.817Z,1012.16
2023-03-05T04:17:24.918Z,1012.10
2023-03-05T04:18:25.102Z,1012.17
2023-03-05T04:19:25.280Z,1012.14
2023-03-05T04:20:25.486Z,1012.10
2023-03-05T04:21:25.619Z,1012.13
2023-03-05T04:22:25.836Z,1012.07
2023-03-05T04:23:25.979Z,1012.12
2023-03-05T04:24:26.172Z,1012.03
2023-03-05T04:25:26.344Z,1012.10
2023-03-05T04:26:26.522Z,1012.12
2023-03-05T04:27:26.691Z,1012.07
2023-03-05T04:28:26.881Z,1012.05
2023-03-05T04:29:27.059Z,1012.10
2023-03-05T04:31:42.331Z,1012.07
2023-03-05T04:32:42.465Z,1012.04
2023-03-05T04:33:42.645Z,1012.03
2023-03-05T04:34:42.813Z,1012.04
2023-03-05T04:35:43.061Z,1012.03
2023-03-05T04:36:43.166Z,1012.01
2023-03-05T04:37:43.368Z,1011.92
2023-03-05T04:38:43.498Z,1011.89
2023-03-05T04:39:43.696Z,1011.95
2023-03-05T04:40:43.871Z,1011.94
2023-03-05T04:41:44.061Z,1011.92
2023-03-05T04:42:44.229Z,1011.94
2023-03-05T04:43:44.417Z,1011.90
2023-03-05T04:44:44.610Z,1011.89
2023-03-05T04:45:44.746Z,1011.92
2023-03-05T04:46:44.968Z,1011.91
2023-03-05T04:47:45.085Z,1011.94
2023-03-05T04:48:45.256Z,1011.98
2023-03-05T04:49:45.456Z,1011.90
2023-03-05T04:50:45.631Z,1011.91
2023-03-05T04:51:45.820Z,1011.93
2023-03-05T04:52:45.997Z,1011.89
2023-03-05T04:53:46.189Z,1011.90
2023-03-05T04:54:46.363Z,1011.93
2023-03-05T04:55:46.520Z,1011.86
2023-03-05T04:56:46.691Z,1011.89
2023-03-05T04:57:46.947Z,1011.85
2023-03-05T04:58:47.075Z,1011.81
2023-03-05T04:59:47.243Z,1011.81
2023-03-05T05:00:47.408Z,1011.79
2023-03-05T05:01:47.654Z,1011.82
2023-03-05T05:02:47.857Z,1011.81
2023-03-05T05:03:47.972Z,1011.84
2023-03-05T05:04:48.130Z,1011.84
2023-03-05T05:05:48.316Z,1011.83
2023-03-05T05:06:48.514Z,1011.88
2023-03-05T05:07:48.694Z,1011.92
2023-03-05T05:08:48.878Z,1011.86
2023-03-05T05:09:49.054Z,1011.88
2023-03-05T05:10:49.218Z,1011.95
2023-03-05T05:11:49.423Z,1011.90
2023-03-05T05:12:49.558Z,1011.94
2023-03-05T05:13:49.756Z,1011.86
2023-03-05T05:14:49.929Z,1011.92
2023-03-05T05:15:50.133Z,1011.88
2023-03-05T05:16:50.304Z,1011.84
2023-03-05T05:17:50.479Z,1011.86
2023-03-05T05:18:50.641Z,1011.91
2023-03-05T05:19:50.830Z,1011.84
2023-03-05T05:20:51.003Z,1011.81
2023-03-05T05:21:51.213Z,1011.82
2023-03-05T05:22:51.357Z,1011.80
2023-03-05T05:23:51.550Z,1011.81
2023-03-05T05:24:51.706Z,1011.86
2023-03-05T05:25:51.895Z,1011.85
2023-03-05T05:26:52.124Z,1011.82
2023-03-05T05:27:52.262Z,1011.83
2023-03-05T05:28:52.444Z,1011.77
2023-03-05T05:29:52.626Z,1011.84
2023-03-05T05:30:52.826Z,1011.89
2023-03-05T05:31:53.119Z,1011.87
2023-03-05T05:32:53.170Z,1011.87
2023-03-05T05:33:53.356Z,1011.85
2023-03-05T05:34:53.513Z,1011.81
2023-03-05T05:35:53.740Z,1011.84
2023-03-05T05:36:53.905Z,1011.77
2023-03-05T05:37:54.030Z,1011.82
2023-03-05T05:38:54.196Z,1011.78
2023-03-05T05:39:54.380Z,1011.85
2023-03-05T05:40:54.552Z,1011.85
2023-03-05T05:41:54.751Z,1011.86
2023-03-05T05:42:54.879Z,1011.91
2023-03-05T05:43:55.091Z,1011.91
2023-03-05T05:44:55.247Z,1011.95
2023-03-05T05:45:55.544Z,1011.92
2023-03-05T05:46:55.593Z,1011.90
2023-03-05T05:47:55.770Z,1011.84
2023-03-05T05:48:55.964Z,1011.94
2023-03-05T05:49:56.115Z,1011.94
2023-03-05T05:50:56.295Z,1011.95
2023-03-05T05:51:56.454Z,1011.92
2023-03-05T05:52:56.664Z,1011.95
2023-03-05T05:53:56.817Z,1011.88
2023-03-05T05:54:56.986Z,1011.88
2023-03-05T05:55:57.154Z,1011.93
2023-03-05T05:56:57.307Z,1011.88
2023-03-05T05:57:57.535Z,1011.90
2023-03-05T05:58:57.684Z,1011.86
2023-03-05T05:59:57.845Z,1011.91
2023-03-05T06:00:58.020Z,1011.93
2023-03-05T06:01:58.276Z,1011.90
2023-03-05T06:02:58.384Z,1011.86
2023-03-05T06:03:58.515Z,1011.86
2023-03-05T06:04:58.724Z,1011.91
2023-03-05T06:05:58.932Z,1011.88
2023-03-05T06:06:59.079Z,1011.93
2023-03-05T06:07:59.266Z,1011.97
2023-03-05T06:08:59.439Z,1011.87
2023-03-05T06:09:59.602Z,1011.88
2023-03-05T06:10:59.755Z,1011.92
2023-03-05T06:11:59.943Z,1011.94
2023-03-05T06:13:00.115Z,1011.90
2023-03-05T06:14:00.301Z,1011.93
2023-03-05T06:15:00.425Z,1011.89
2023-03-05T06:16:00.615Z,1011.91
2023-03-05T06:17:00.771Z,1011.94
2023-03-05T06:18:00.968Z,1011.94
2023-03-05T06:19:03.358Z,1011.88
2023-03-05T06:20:01.338Z,1011.85
2023-03-05T06:21:01.465Z,1011.85
2023-03-05T06:22:01.664Z,1011.89
2023-03-05T06:23:01.827Z,1011.84
2023-03-05T06:24:02.009Z,1011.85
2023-03-05T06:25:02.165Z,1011.82
2023-03-05T06:26:02.358Z,1011.86
2023-03-05T06:27:02.506Z,1011.89
2023-03-05T06:28:02.681Z,1011.83
2023-03-05T06:29:02.849Z,1011.85
2023-03-05T06:30:03.016Z,1011.84
2023-03-05T06:31:03.180Z,1011.86
2023-03-05T06:32:03.523Z,1011.85
2023-03-05T06:33:03.575Z,1011.86
2023-03-05T06:34:03.827Z,1011.84
2023-03-05T06:35:03.866Z,1011.85
2023-03-05T06:36:04.046Z,1011.84
2023-03-05T06:37:04.223Z,1011.82
2023-03-05T06:38:04.426Z,1011.88
2023-03-05T06:39:04.579Z,1011.89
2023-03-05T06:40:04.798Z,1011.84
2023-03-05T06:41:04.921Z,1011.87
2023-03-05T06:42:05.101Z,1011.88
2023-03-05T06:43:05.298Z,1011.88
2023-03-05T06:44:05.480Z,1011.86
2023-03-05T06:45:05.641Z,1011.93
2023-03-05T06:46:05.838Z,1011.83
2023-03-05T06:47:05.991Z,1011.84
2023-03-05T06:48:06.163Z,1011.85
2023-03-05T06:49:06.328Z,1011.82
2023-03-05T06:50:06.493Z,1011.84
2023-03-05T06:51:06.654Z,1011.86
2023-03-05T06:52:06.911Z,1011.82
2023-03-05T06:53:07.032Z,1011.85
2023-03-05T06:54:07.237Z,1011.84
2023-03-05T06:55:07.372Z,1011.80
2023-03-05T06:56:07.573Z,1011.89
2023-03-05T06:57:07.847Z,1011.90
2023-03-05T06:58:07.935Z,1011.92
2023-03-05T06:59:08.142Z,1011.86
2023-03-05T07:00:08.304Z,1011.83
2023-03-05T07:01:08.466Z,1011.87
2023-03-05T07:02:08.633Z,1011.83
2023-03-05T07:03:08.764Z,1011.91
2023-03-05T07:04:08.999Z,1011.83
2023-03-05T07:05:09.123Z,1011.87
2023-03-05T07:06:09.315Z,1011.92
2023-03-05T07:07:09.504Z,1011.93
2023-03-05T07:08:09.658Z,1011.97
2023-03-05T07:09:09.854Z,1011.84
2023-03-05T07:10:10.041Z,1011.88
2023-03-05T07:11:10.209Z,1011.90
2023-03-05T07:12:10.413Z,1011.90
2023-03-05T07:13:10.566Z,1011.91
2023-03-05T07:14:10.757Z,1011.91
2023-03-05T07:15:10.916Z,1011.93
2023-03-05T07:16:11.142Z,1011.87
2023-03-05T07:17:11.284Z,1011.90
2023-03-05T07:18:11.493Z,1011.93
2023-03-05T07:19:11.666Z,1011.89
2023-03-05T07:20:11.850Z,1011.91
2023-03-05T07:21:12.001Z,1011.86
2023-03-05T07:22:12.190Z,1011.87
2023-03-05T07:23:12.358Z,1011.87
2023-03-05T07:24:12.612Z,1011.84
2023-03-05T07:25:12.717Z,1011.85
2023-03-05T07:26:12.875Z,1011.81
2023-03-05T07:27:13.085Z,1011.90
2023-03-05T07:28:13.264Z,1011.88
2023-03-05T07:29:13.426Z,1011.83
2023-03-05T07:30:13.616Z,1011.92
2023-03-05T07:31:13.839Z,1011.86
2023-03-05T07:32:13.953Z,1011.92
2023-03-05T07:33:14.125Z,1011.95
2023-03-05T07:34:14.280Z,1011.91
2023-03-05T07:35:14.441Z,1011.90
2023-03-05T07:36:14.621Z,1011.94
2023-03-05T07:37:14.795Z,1011.89
2023-03-05T07:38:14.967Z,1011.89
2023-03-05T07:39:16.101Z,1011.80
2023-03-05T07:40:15.341Z,1011.84
2023-03-05T07:41:15.503Z,1011.84
2023-03-05T07:42:15.718Z,1011.84
2023-03-05T07:43:15.828Z,1011.78
2023-03-05T07:44:16.009Z,1011.76
2023-03-05T07:45:16.190Z,1011.70
2023-03-05T07:46:16.563Z,1011.69
2023-03-05T07:47:16.513Z,1011.65
2023-03-05T07:48:16.700Z,1011.66
2023-03-05T07:49:16.847Z,1011.72
2023-03-05T07:50:17.047Z,1011.73
2023-03-05T07:51:17.208Z,1011.70
2023-03-05T07:52:17.390Z,1011.75
2023-03-05T07:53:17.554Z,1011.77
2023-03-05T07:54:17.724Z,1011.79
2023-03-05T07:55:17.907Z,1011.76
2023-03-05T07:56:18.064Z,1011.78
2023-03-05T07:57:18.262Z,1011.81
2023-03-05T07:58:18.435Z,1011.78
2023-03-05T07:59:18.610Z,1011.74
2023-03-05T08:00:18.754Z,1011.76
2023-03-05T08:01:18.934Z,1011.82
2023-03-05T08:02:19.154Z,1011.77
2023-03-05T08:03:19.262Z,1011.82
2023-03-05T08:04:19.504Z,1011.80
2023-03-05T08:05:19.579Z,1011.79
2023-03-05T08:06:19.756Z,1011.81
2023-03-05T08:07:19.936Z,1011.80
2023-03-05T08:08:20.117Z,1011.81
2023-03-05T08:09:20.289Z,1011.74
2023-03-05T08:10:20.469Z,1011.81
2023-03-05T08:11:20.638Z,1011.77
2023-03-05T08:12:20.828Z,1011.82
2023-03-05T08:13:21.011Z,1011.87
2023-03-05T08:14:21.216Z,1011.75
2023-03-05T08:15:21.353Z,1011.78
2023-03-05T08:16:21.633Z,1011.74
2023-03-05T08:17:21.712Z,1011.68
2023-03-05T08:18:21.900Z,1011.81
2023-03-05T08:19:22.059Z,1011.69
2023-03-05T08:20:22.251Z,1011.72
2023-03-05T08:21:22.420Z,1011.70
2023-03-05T08:22:22.590Z,1011.74
2023-03-05T08:23:22.751Z,1011.68
2023-03-05T08:24:22.942Z,1011.72
2023-03-05T08:25:23.064Z,1011.75
2023-03-05T08:26:23.229Z,1011.66
2023-03-05T08:27:23.397Z,1011.62
2023-03-05T08:28:23.590Z,1011.70
2023-03-05T08:29:23.771Z,1011.66
2023-03-05T08:30:23.938Z,1011.61
2023-03-05T08:31:24.165Z,1011.62
2023-03-05T08:32:24.330Z,1011.60
2023-03-05T08:33:24.461Z,1011.60
2023-03-05T08:34:24.648Z,1011.59
2023-03-05T08:35:24.843Z,1011.54
2023-03-05T08:36:24.985Z,1011.53
2023-03-05T08:37:25.120Z,1011.57
2023-03-05T08:38:25.294Z,1011.47
2023-03-05T08:39:25.452Z,1011.55
2023-03-05T08:40:25.647Z,1011.48
2023-03-05T08:41:25.813Z,1011.43
2023-03-05T08:42:26.009Z,1011.46
2023-03-05T08:43:26.206Z,1011.49
2023-03-05T08:44:26.312Z,1011.48
2023-03-05T08:45:26.498Z,1011.51
2023-03-05T08:46:26.748Z,1011.48
2023-03-05T08:47:26.817Z,1011.46
2023-03-05T08:48:27.007Z,1011.41
2023-03-05T08:49:27.159Z,1011.38
2023-03-05T08:50:27.335Z,1011.37
2023-03-05T08:51:27.534Z,1011.35
2023-03-05T08:52:27.692Z,1011.30
2023-03-05T08:53:27.847Z,1011.33
2023-03-05T08:54:28.031Z,1011.29
2023-03-05T08:55:28.191Z,1011.32
2023-03-05T08:56:28.422Z,1011.22
2023-03-05T08:57:28.528Z,1011.22
2023-03-05T08:58:28.716Z,1011.29
2023-03-05T08:59:28.867Z,1011.31
2023-03-05T09:00:29.044Z,1011.29
2023-03-05T09:01:29.247Z,1011.22
2023-03-05T09:02:29.413Z,1011.26
2023-03-05T09:03:29.574Z,1011.25
2023-03-05T09:04:29.744Z,1011.20
2023-03-05T09:05:29.921Z,1011.24
2023-03-05T09:06:30.089Z,1011.18
2023-03-05T09:07:30.259Z,1011.20
2023-03-05T09:08:30.440Z,1011.09
2023-03-05T09:09:30.620Z,1011.07
2023-03-05T09:10:30.796Z,1011.02
2023-03-05T09:11:30.997Z,1011.04
2023-03-05T09:12:31.127Z,1011.01
2023-03-05T09:13:31.319Z,1011.07
2023-03-05T09:14:31.479Z,1011.04
2023-03-05T09:15:31.654Z,1010.99
2023-03-05T09:16:31.881Z,1011.11
2023-03-05T09:17:31.983Z,1011.10
2023-03-05T09:18:32.166Z,1011.08
2023-03-05T09:19:32.333Z,1011.03
2023-03-05T09:20:32.569Z,1011.01
2023-03-05T09:21:32.697Z,1011.06
2023-03-05T09:22:32.865Z,1011.01
2023-03-05T09:23:33.054Z,1011.03
2023-03-05T09:24:33.212Z,1010.97
2023-03-05T09:25:33.414Z,1010.92
2023-03-05T09:26:33.570Z,1011.08
2023-03-05T09:27:33.742Z,1010.96
2023-03-05T09:28:33.916Z,1010.99
2023-03-05T09:29:34.102Z,1010.95
2023-03-05T09:30:34.300Z,1010.93
2023-03-05T09:31:34.420Z,1010.90
2023-03-05T09:32:34.641Z,1010.90
2023-03-05T09:33:34.751Z,1010.93
2023-03-05T09:34:34.930Z,1010.85
2023-03-05T09:35:35.118Z,1010.90
2023-03-05T09:36:35.299Z,1011.00
2023-03-05T09:37:35.432Z,1010.90
2023-03-05T09:38:35.592Z,1010.80
2023-03-05T09:39:35.807Z,1010.83
2023-03-05T09:40:35.949Z,1010.75
2023-03-05T09:41:36.140Z,1010.88
2023-03-05T09:42:36.288Z,1010.81
2023-03-05T09:43:36.487Z,1010.90
2023-03-05T09:44:36.644Z,1010.85
2023-03-05T09:45:36.837Z,1010.79
2023-03-05T09:46:36.980Z,1010.78
2023-03-05T09:47:37.165Z,1010.78
2023-03-05T09:48:37.340Z,1010.81
2023-03-05T09:49:37.511Z,1010.73
2023-03-05T09:50:37.673Z,1010.77
2023-03-05T09:51:37.845Z,1010.79
2023-03-05T09:52:38.025Z,1010.77
2023-03-05T09:53:38.200Z,1010.82
2023-03-05T09:54:38.338Z,1010.76
2023-03-05T09:55:38.502Z,1010.80
2023-03-05T09:56:38.672Z,1010.77
2023-03-05T09:57:38.856Z,1010.64
2023-03-05T09:58:39.004Z,1010.73
2023-03-05T09:59:39.195Z,1010.64
2023-03-05T10:00:39.371Z,1010.67
2023-03-05T10:01:39.533Z,1010.63
2023-03-05T10:02:39.731Z,1010.65
2023-03-05T10:03:39.913Z,1010.67
2023-03-05T10:04:40.036Z,1010.74
2023-03-05T10:05:40.209Z,1010.74
2023-03-05T10:06:40.369Z,1010.68
2023-03-05T10:07:40.569Z,1010.65
2023-03-05T10:08:40.716Z,1010.70
2023-03-05T10:09:40.889Z,1010.66
2023-03-05T10:10:41.040Z,1010.72
2023-03-05T10:11:41.249Z,1010.65
2023-03-05T10:12:41.414Z,1010.78
2023-03-05T10:13:41.564Z,1010.65
2023-03-05T10:14:41.741Z,1010.72
2023-03-05T10:15:41.893Z,1010.58
2023-03-05T10:16:42.143Z,1010.66
2023-03-05T10:17:42.261Z,1010.64
2023-03-05T10:18:42.446Z,1010.57
2023-03-05T10:19:42.606Z,1010.60
2023-03-05T10:20:42.762Z,1010.64
2023-03-05T10:21:42.932Z,1010.58
2023-03-05T10:22:43.113Z,1010.61
2023-03-05T10:23:43.297Z,1010.67
2023-03-05T10:24:43.413Z,1010.61
2023-03-05T10:25:43.617Z,1010.66
2023-03-05T10:26:43.767Z,1010.66
2023-03-05T10:27:43.929Z,1010.70
2023-03-05T10:28:44.116Z,1010.60
2023-03-05T10:29:44.313Z,1010.62
2023-03-05T10:30:44.466Z,1010.58
2023-03-05T10:32:59.716Z,1010.49
2023-03-05T10:33:59.865Z,1010.46
2023-03-05T10:35:00.054Z,1010.45
2023-03-05T10:36:00.184Z,1010.40
2023-03-05T10:37:00.347Z,1010.39
2023-03-05T10:38:00.506Z,1010.47
2023-03-05T10:39:00.671Z,1010.39
2023-03-05T10:40:00.858Z,1010.41
2023-03-05T10:41:00.989Z,1010.42
2023-03-05T10:42:01.187Z,1010.39
2023-03-05T10:43:01.358Z,1010.35
2023-03-05T10:44:01.533Z,1010.33
2023-03-05T10:45:01.740Z,1010.34
2023-03-05T10:46:01.935Z,1010.30
2023-03-05T10:47:02.038Z,1010.29
2023-03-05T10:48:02.197Z,1010.32
2023-03-05T10:49:02.379Z,1010.27
2023-03-05T10:50:02.552Z,1010.26
2023-03-05T10:51:02.696Z,1010.23
2023-03-05T10:52:02.871Z,1010.17
2023-03-05T10:53:03.035Z,1010.21
2023-03-05T10:54:03.198Z,1010.19
2023-03-05T10:55:03.393Z,1010.13
2023-03-05T10:56:03.531Z,1010.14
2023-03-05T10:57:03.708Z,1010.15
2023-03-05T10:58:03.902Z,1010.13
2023-03-05T10:59:04.059Z,1010.14
2023-03-05T11:00:04.246Z,1010.13
2023-03-05T11:01:04.487Z,1010.09
2023-03-05T11:02:04.605Z,1010.15
2023-03-05T11:03:04.742Z,1010.10
2023-03-05T11:04:04.904Z,1010.10
2023-03-05T11:05:05.310Z,1010.08
2023-03-05T11:06:05.250Z,1010.11
2023-03-05T11:07:05.402Z,1010.15
2023-03-05T11:08:05.565Z,1010.11
2023-03-05T11:09:05.729Z,1010.04
2023-03-05T11:10:05.903Z,1010.10
2023-03-05T11:11:06.122Z,1010.06
2023-03-05T11:12:06.260Z,1010.04
2023-03-05T11:13:06.429Z,1010.06
2023-03-05T11:14:06.594Z,1010.00
2023-03-05T11:15:06.785Z,1010.04
2023-03-05T11:16:07.062Z,1009.97
2023-03-05T11:17:07.098Z,1009.94
2023-03-05T11:18:07.260Z,1009.90
2023-03-05T11:19:07.431Z,1009.92
2023-03-05T11:20:07.608Z,1009.94
2023-03-05T11:21:07.803Z,1009.93
2023-03-05T11:22:07.969Z,1009.96
2023-03-05T11:23:08.151Z,1009.95
2023-03-05T11:24:08.314Z,1009.97
2023-03-05T11:25:08.477Z,1010.02
2023-03-05T11:26:08.668Z,1010.01
2023-03-05T11:27:08.817Z,1009.98
2023-03-05T11:28:08.982Z,1009.97
2023-03-05T11:29:09.145Z,1009.98
2023-03-05T11:30:09.305Z,1009.94
2023-03-05T11:31:09.641Z,1009.93
2023-03-05T11:32:09.694Z,1009.92
2023-03-05T11:33:10.588Z,1009.87
2023-03-05T11:34:09.992Z,1009.87
2023-03-05T11:35:10.161Z,1009.87
2023-03-05T11:36:10.327Z,1009.89
2023-03-05T11:37:10.512Z,1009.84
2023-03-05T11:38:10.666Z,1009.87
2023-03-05T11:39:10.849Z,1009.82
2023-03-05T11:40:11.028Z,1009.83
2023-03-05T11:41:11.186Z,1009.82
2023-03-05T11:42:11.397Z,1009.75
2023-03-05T11:43:11.531Z,1009.72
2023-03-05T11:44:13.500Z,1009.72
2023-03-05T11:45:11.861Z,1009.73
2023-03-05T11:46:12.076Z,1009.74
2023-03-05T11:47:12.210Z,1009.76
2023-03-05T11:48:12.382Z,1009.78
2023-03-05T11:49:12.559Z,1009.79
2023-03-05T11:50:12.737Z,1009.82
2023-03-05T11:51:12.942Z,1009.79
2023-03-05T11:52:13.083Z,1009.78
2023-03-05T11:53:13.249Z,1009.72
2023-03-05T11:54:13.408Z,1009.74
2023-03-05T11:55:13.574Z,1009.68
2023-03-05T11:56:13.788Z,1009.64
2023-03-05T11:57:13.910Z,1009.62
2023-03-05T11:58:14.093Z,1009.63
2023-03-05T11:59:14.258Z,1009.57
2023-03-05T12:00:14.406Z,1009.59
2023-03-05T12:01:14.604Z,1009.57
2023-03-05T12:02:14.776Z,1009.55
2023-03-05T12:03:14.945Z,1009.55
2023-03-05T12:04:15.078Z,1009.55
2023-03-05T12:05:15.248Z,1009.47
2023-03-05T12:06:15.461Z,1009.56
2023-03-05T12:07:15.619Z,1009.58
2023-03-05T12:08:15.780Z,1009.55
2023-03-05T12:09:15.950Z,1009.52
2023-03-05T12:10:16.157Z,1009.48